Terminal Aerodrome Forecast
Issued by NWS Cleveland, OH

Home | Current Version | Previous Version | Graphics & Text | Print | Product List | Glossary On
Versions: 1 2 3 4 5 6 7 8 9 10 11 12 13 14 15 16 17 18 19 20 21 22 23 24 25 26
000
FTUS41 KCLE 201500 AAA
TAFERI
TAF AMD
KERI 201509Z 2015/2112 23016G26KT 3SM -SHSN SCT015 OVC035
      TEMPO 2015/2018 1SM -SN BKN015
     FM201800 24018G30KT 5SM -SHSN SCT018 OVC035
     FM202200 27014G22KT 1SM -SHSN OVC012 PROB30 2100/2103 1/2SM SN
      OVC005
     FM210700 27012G20KT 3SM -SHSN OVC018=

USA.gov is the U.S. government's official web portal to all federal, state and local government web resources and services.